Saint-Alexandre-De-Kamouraska, Canada
Current Conditions -  °F | °C
As of 4:53 PM on Saturday 25 Oct 2014 (Local Time) from KFVE Reporting Station
Overcast Overcast  
Wind Chill: 38°   Ceiling: 6000
Heat Index: 42°   Visibility: 10mi
Dew Point: 38°   Wind: 6mph
Humidity: 85%   Direction: 90°E
Pressure: 29.53"   Gusts: NA
Location:  47.68°N, 69.63°W
Report Text: KFVE 252053Z AUTO 09005KT 10SM BKN060 OVC090 06/03 A2953 RMK AO2 SLP004 60000 T00560033 58011
Loading
Personal Weather Stations






























Interactive Weather Map
Tropical Storm Tracking
New forecast layout! Learn more

10-Day Weather Forecast

Advertisements
Track Severe Weather on mobile